Time;durP1;ratioP1;P1;durP2;ratioP2;P2;SDS_P1;SDS_P2;PMS_P1;PMS_P2;Temp;Humidity;BMP_temperature;BMP_pressure;BME280_temperature;BME280_humidity;BME280_pressure;Samples;Min_cycle;Max_cycle;Signal;HPM_P1;HPM_P2
2021/08/01 00:00:27;;;;;;;5.40;3.67;;;;;;;;;;5052133;28;20471;-41
2021/08/01 00:02:54;;;;;;;6.93;3.92;;;;;;;;;;5052265;28;20033;-41
2021/08/01 00:05:20;;;;;;;9.05;3.70;;;;;;;;;;5050936;28;20375;-42
2021/08/01 00:07:45;;;;;;;6.22;4.15;;;;;;;;;;5051999;28;20104;-41
2021/08/01 00:10:11;;;;;;;8.10;4.20;;;;;;;;;;5052174;28;20059;-41
2021/08/01 00:12:36;;;;;;;8.10;4.13;;;;;;;;;;5051028;28;20044;-41
2021/08/01 00:15:02;;;;;;;12.30;4.28;;;;;;;;;;5052186;28;20463;-42
2021/08/01 00:17:27;;;;;;;8.52;4.43;;;;;;;;;;5051928;28;20033;-41
2021/08/01 00:19:52;;;;;;;5.20;4.18;;;;;;;;;;5052363;28;20024;-41
2021/08/01 00:22:19;;;;;;;6.18;3.72;;;;;;;;;;5052077;28;20025;-41
2021/08/01 00:24:45;;;;;;;9.65;4.03;;;;;;;;;;5051976;28;20099;-42
2021/08/01 00:27:10;;;;;;;4.78;3.58;;;;;;;;;;5052283;28;20064;-41
2021/08/01 00:29:35;;;;;;;6.05;3.42;;;;;;;;;;5051771;28;20120;-41
2021/08/01 00:32:02;;;;;;;6.80;3.28;;;;;;;;;;5052158;28;20454;-41
2021/08/01 00:34:27;;;;;;;5.15;3.58;;;;;;;;;;5050547;28;20028;-41
2021/08/01 00:36:54;;;;;;;7.00;4.07;;;;;;;;;;5052142;28;20029;-41
2021/08/01 00:39:20;;;;;;;9.00;4.28;;;;;;;;;;5051833;28;20070;-42
2021/08/01 00:41:45;;;;;;;7.97;3.85;;;;;;;;;;5052063;28;20029;-41
2021/08/01 00:44:11;;;;;;;13.05;4.07;;;;;;;;;;5050510;28;20017;-41
2021/08/01 00:46:36;;;;;;;6.07;3.70;;;;;;;;;;5051816;28;20054;-42
2021/08/01 00:49:02;;;;;;;9.20;3.47;;;;;;;;;;5051826;28;20017;-41
2021/08/01 00:51:31;;;;;;;6.68;3.95;;;;;;;;;;5051556;28;20041;-41
2021/08/01 00:54:01;;;;;;;8.73;3.85;;;;;;;;;;5050451;28;20029;-41
2021/08/01 00:56:26;;;;;;;7.50;3.92;;;;;;;;;;5051662;28;20025;-41
2021/08/01 00:58:52;;;;;;;5.38;4.10;;;;;;;;;;5051392;28;20071;-42
2021/08/01 01:01:20;;;;;;;8.88;4.22;;;;;;;;;;5055434;28;20033;-41
2021/08/01 01:03:49;;;;;;;8.98;3.60;;;;;;;;;;5055063;28;20112;-42
2021/08/01 01:06:36;;;;;;;8.30;4.13;;;;;;;;;;5055275;28;20024;-42
2021/08/01 01:09:06;;;;;;;7.22;3.53;;;;;;;;;;5053903;28;20029;-42
2021/08/01 01:11:53;;;;;;;6.80;3.78;;;;;;;;;;5053798;28;20060;-42
2021/08/01 01:14:21;;;;;;;6.70;3.70;;;;;;;;;;5053905;28;20052;-46
2021/08/01 01:16:49;;;;;;;6.93;3.45;;;;;;;;;;5055202;28;20025;-42
2021/08/01 01:19:19;;;;;;;5.68;3.97;;;;;;;;;;5054926;28;20020;-41
2021/08/01 01:21:59;;;;;;;16.80;4.25;;;;;;;;;;5053542;28;20111;-41
2021/08/01 01:24:29;;;;;;;8.77;3.72;;;;;;;;;;5053668;28;20025;-41
2021/08/01 01:27:17;;;;;;;6.40;3.70;;;;;;;;;;5055087;28;20040;-41
2021/08/01 01:29:46;;;;;;;6.70;3.60;;;;;;;;;;5053113;28;20033;-41
2021/08/01 01:32:30;;;;;;;10.98;4.20;;;;;;;;;;5054907;28;20507;-42
2021/08/01 01:34:58;;;;;;;7.07;3.92;;;;;;;;;;5054951;28;20052;-41
2021/08/01 01:37:25;;;;;;;11.18;4.03;;;;;;;;;;5053349;28;20025;-41
2021/08/01 01:39:51;;;;;;;7.45;3.50;;;;;;;;;;5053182;28;20031;-41
2021/08/01 01:42:50;;;;;;;6.32;3.45;;;;;;;;;;5047656;28;20104;-41
2021/08/01 01:45:22;;;;;;;;;;;;;;;;;;5053680;28;20434;-41
2021/08/01 01:47:49;;;;;;;8.50;3.55;;;;;;;;;;5053060;28;19908;-41
2021/08/01 01:50:19;;;;;;;10.70;3.47;;;;;;;;;;5053186;28;20024;-41
2021/08/01 01:52:47;;;;;;;5.18;3.35;;;;;;;;;;5054223;28;20029;-42
2021/08/01 01:55:14;;;;;;;5.13;3.58;;;;;;;;;;5053045;28;20547;-41
2021/08/01 01:57:44;;;;;;;7.32;3.70;;;;;;;;;;5054124;28;20116;-41
2021/08/01 02:00:10;;;;;;;5.15;3.30;;;;;;;;;;5054591;28;20389;-41
2021/08/01 02:02:44;;;;;;;8.93;3.58;;;;;;;;;;5054098;28;20430;-41
2021/08/01 02:05:17;;;;;;;6.57;3.75;;;;;;;;;;5054107;28;20032;-41
2021/08/01 02:08:02;;;;;;;6.38;3.30;;;;;;;;;;5054165;28;20458;-41
2021/08/01 02:10:53;;;;;;;9.05;3.50;;;;;;;;;;5053889;28;20052;-41
2021/08/01 02:13:22;;;;;;;7.45;3.45;;;;;;;;;;5052751;28;20510;-42
2021/08/01 02:15:54;;;;;;;4.65;2.88;;;;;;;;;;5052566;28;20024;-41
2021/08/01 02:18:24;;;;;;;5.63;3.53;;;;;;;;;;5052609;28;20083;-42
2021/08/01 02:20:51;;;;;;;8.05;3.50;;;;;;;;;;5052503;28;20116;-41
2021/08/01 02:23:22;;;;;;;5.97;3.40;;;;;;;;;;5052523;28;20028;-41
2021/08/01 02:25:48;;;;;;;4.38;2.85;;;;;;;;;;5052392;28;20053;-42
2021/08/01 02:28:16;;;;;;;9.75;3.80;;;;;;;;;;5053948;28;20108;-41
2021/08/01 02:30:44;;;;;;;7.35;3.65;;;;;;;;;;5052322;28;20044;-41
2021/08/01 02:33:10;;;;;;;5.60;3.60;;;;;;;;;;5052314;28;20037;-41
2021/08/01 02:35:36;;;;;;;4.05;2.88;;;;;;;;;;5053501;28;20387;-41
2021/08/01 02:38:03;;;;;;;11.57;4.05;;;;;;;;;;5052136;28;20036;-41
2021/08/01 02:40:32;;;;;;;8.40;3.95;;;;;;;;;;5052214;28;20460;-41
2021/08/01 02:42:59;;;;;;;6.82;4.03;;;;;;;;;;5053518;28;20024;-41
2021/08/01 02:45:25;;;;;;;6.35;3.00;;;;;;;;;;5051989;28;20017;-41
2021/08/01 02:47:52;;;;;;;4.63;3.53;;;;;;;;;;5051993;28;20021;-41
2021/08/01 02:50:19;;;;;;;8.70;3.05;;;;;;;;;;5051872;28;20086;-43
2021/08/01 02:52:49;;;;;;;9.55;3.70;;;;;;;;;;5053220;28;20074;-41
2021/08/01 02:55:17;;;;;;;5.68;3.80;;;;;;;;;;5053166;28;20106;-41
2021/08/01 02:57:44;;;;;;;5.97;3.28;;;;;;;;;;5053240;28;20032;-42
2021/08/01 03:00:11;;;;;;;6.90;3.58;;;;;;;;;;5051885;28;20119;-42
2021/08/01 03:02:38;;;;;;;9.75;3.47;;;;;;;;;;5051680;28;20539;-41
2021/08/01 03:05:04;;;;;;;8.05;3.80;;;;;;;;;;5052903;28;20029;-41
2021/08/01 03:07:30;;;;;;;5.72;3.38;;;;;;;;;;5051555;28;20028;-41
2021/08/01 03:09:57;;;;;;;4.30;2.97;;;;;;;;;;5051692;28;20025;-41
2021/08/01 03:12:22;;;;;;;8.10;3.28;;;;;;;;;;5052794;28;20047;-41
2021/08/01 03:14:48;;;;;;;7.28;3.45;;;;;;;;;;5052760;28;20021;-41
2021/08/01 03:17:14;;;;;;;5.07;3.30;;;;;;;;;;5051505;28;20047;-45
2021/08/01 03:19:39;;;;;;;6.93;3.28;;;;;;;;;;5051377;28;20025;-41
2021/08/01 03:22:06;;;;;;;7.93;3.75;;;;;;;;;;5052251;28;20017;-41
2021/08/01 03:24:38;;;;;;;6.05;3.30;;;;;;;;;;5052574;28;20484;-43
2021/08/01 03:27:07;;;;;;;4.53;3.35;;;;;;;;;;5052594;28;20025;-42
2021/08/01 03:29:32;;;;;;;10.98;4.10;;;;;;;;;;5051237;28;20017;-41
2021/08/01 03:31:59;;;;;;;5.10;3.17;;;;;;;;;;5051282;28;20032;-41
2021/08/01 03:34:24;;;;;;;7.10;3.67;;;;;;;;;;5051220;28;20027;-41
2021/08/01 03:36:51;;;;;;;6.28;2.88;;;;;;;;;;5051263;28;20434;-42
2021/08/01 03:39:19;;;;;;;5.18;2.97;;;;;;;;;;5052504;28;20402;-41
2021/08/01 03:41:54;;;;;;;4.43;3.05;;;;;;;;;;5035744;28;20082;-41
2021/08/01 03:44:22;;;;;;;4.68;3.13;;;;;;;;;;5052649;28;20022;-41
2021/08/01 03:46:48;;;;;;;5.45;3.60;;;;;;;;;;5052413;28;20121;-41
2021/08/01 03:49:13;;;;;;;8.35;3.55;;;;;;;;;;5052446;28;20493;-43
2021/08/01 03:51:39;;;;;;;9.60;3.20;;;;;;;;;;5052214;28;20068;-42
2021/08/01 03:54:04;;;;;;;8.48;4.03;;;;;;;;;;5052248;28;20483;-41
2021/08/01 03:56:29;;;;;;;5.80;3.28;;;;;;;;;;5052260;28;20116;-42
2021/08/01 03:58:55;;;;;;;5.63;3.47;;;;;;;;;;5052420;28;20516;-41
2021/08/01 04:01:20;;;;;;;5.18;3.40;;;;;;;;;;5052289;28;20017;-41
2021/08/01 04:03:46;;;;;;;5.43;3.35;;;;;;;;;;5050898;28;20029;-41
2021/08/01 04:06:11;;;;;;;4.65;3.55;;;;;;;;;;5052164;28;20440;-41
2021/08/01 04:08:36;;;;;;;5.53;4.13;;;;;;;;;;5052101;28;20036;-41
2021/08/01 04:11:03;;;;;;;6.47;3.28;;;;;;;;;;5052092;28;20060;-41
2021/08/01 04:13:28;;;;;;;5.65;4.18;;;;;;;;;;5052480;28;20395;-41
2021/08/01 04:15:53;;;;;;;7.25;3.60;;;;;;;;;;5051928;28;20013;-41
2021/08/01 04:18:19;;;;;;;9.95;3.38;;;;;;;;;;5050760;28;20032;-41
2021/08/01 04:20:44;;;;;;;5.22;3.30;;;;;;;;;;5051931;28;20019;-41
2021/08/01 04:23:10;;;;;;;12.02;2.90;;;;;;;;;;5052287;28;20033;-41
2021/08/01 04:25:35;;;;;;;9.82;3.00;;;;;;;;;;5051984;28;20029;-41
2021/08/01 04:28:01;;;;;;;5.97;3.45;;;;;;;;;;5052025;28;20104;-41
2021/08/01 04:30:26;;;;;;;13.90;3.63;;;;;;;;;;5050634;28;20021;-41
2021/08/01 04:32:51;;;;;;;7.10;3.28;;;;;;;;;;5051843;28;20063;-41
2021/08/01 04:35:17;;;;;;;11.45;3.13;;;;;;;;;;5055431;28;20028;-41
2021/08/01 04:37:42;;;;;;;13.10;3.88;;;;;;;;;;5055915;28;20104;-41
2021/08/01 04:40:08;;;;;;;7.47;3.30;;;;;;;;;;5056005;28;20071;-41
2021/08/01 04:42:33;;;;;;;8.27;3.78;;;;;;;;;;5055607;28;20021;-41
2021/08/01 04:44:59;;;;;;;9.70;3.95;;;;;;;;;;5055895;28;20116;-41
2021/08/01 04:47:24;;;;;;;12.18;4.50;;;;;;;;;;5055540;28;20040;-41
2021/08/01 04:49:50;;;;;;;5.47;3.45;;;;;;;;;;5054285;28;20032;-41
2021/08/01 04:52:16;;;;;;;7.90;3.67;;;;;;;;;;5055235;28;20044;-41
2021/08/01 04:54:42;;;;;;;12.35;3.60;;;;;;;;;;5055626;28;20037;-41
2021/08/01 04:57:07;;;;;;;9.88;3.70;;;;;;;;;;5055441;28;20499;-41
2021/08/01 04:59:33;;;;;;;5.60;3.50;;;;;;;;;;5055210;28;20021;-41
2021/08/01 05:01:58;;;;;;;7.43;3.53;;;;;;;;;;5054137;28;20459;-41
2021/08/01 05:04:24;;;;;;;6.22;3.88;;;;;;;;;;5055382;28;20026;-41
2021/08/01 05:06:49;;;;;;;4.50;3.90;;;;;;;;;;5055351;28;20025;-41
2021/08/01 05:09:14;;;;;;;8.25;3.60;;;;;;;;;;5055226;28;20029;-41
2021/08/01 05:11:40;;;;;;;6.80;4.15;;;;;;;;;;5053670;28;20055;-41
2021/08/01 05:14:05;;;;;;;5.78;3.63;;;;;;;;;;5055122;28;20049;-41
2021/08/01 05:16:30;;;;;;;8.35;3.78;;;;;;;;;;5053849;28;20511;-41
2021/08/01 05:18:56;;;;;;;5.82;3.58;;;;;;;;;;5054944;28;20021;-42
2021/08/01 05:21:22;;;;;;;11.70;4.40;;;;;;;;;;5054985;28;20476;-41
2021/08/01 05:23:47;;;;;;;7.90;4.00;;;;;;;;;;5053934;28;20066;-43
2021/08/01 05:26:13;;;;;;;4.75;3.85;;;;;;;;;;5054986;28;20486;-41
2021/08/01 05:28:38;;;;;;;7.55;4.25;;;;;;;;;;5055032;28;20362;-41
2021/08/01 05:31:04;;;;;;;5.70;3.53;;;;;;;;;;5054745;28;20494;-41
2021/08/01 05:33:29;;;;;;;11.15;4.05;;;;;;;;;;5054832;28;20017;-41
2021/08/01 05:35:54;;;;;;;11.93;3.72;;;;;;;;;;5054823;28;20025;-41
2021/08/01 05:38:20;;;;;;;8.43;3.83;;;;;;;;;;5054906;28;20033;-41
2021/08/01 05:40:45;;;;;;;8.57;4.20;;;;;;;;;;5054555;28;20021;-41
2021/08/01 05:43:10;;;;;;;6.53;3.55;;;;;;;;;;5054474;28;20025;-45
2021/08/01 05:45:36;;;;;;;9.70;3.90;;;;;;;;;;5054370;28;20086;-40
2021/08/01 05:48:01;;;;;;;8.50;4.10;;;;;;;;;;5054430;28;20017;-41
2021/08/01 05:50:26;;;;;;;11.65;3.97;;;;;;;;;;5054266;28;20033;-41
2021/08/01 05:52:52;;;;;;;8.40;3.38;;;;;;;;;;5054160;28;20076;-41
2021/08/01 05:55:17;;;;;;;11.52;4.10;;;;;;;;;;5054329;28;20063;-41
2021/08/01 05:57:43;;;;;;;10.18;5.38;;;;;;;;;;5053325;28;20096;-41
2021/08/01 06:00:08;;;;;;;8.40;4.53;;;;;;;;;;5054321;28;20506;-41
2021/08/01 06:02:34;;;;;;;7.72;3.25;;;;;;;;;;5054116;28;20522;-41
2021/08/01 06:04:59;;;;;;;11.23;4.45;;;;;;;;;;5054136;28;20029;-41
2021/08/01 06:07:25;;;;;;;12.40;3.63;;;;;;;;;;5054366;28;20077;-41
2021/08/01 06:09:50;;;;;;;6.07;3.25;;;;;;;;;;5053980;28;20025;-41
2021/08/01 06:12:16;;;;;;;7.53;4.00;;;;;;;;;;5053938;28;20166;-41
2021/08/01 06:14:41;;;;;;;8.18;3.90;;;;;;;;;;5054188;28;20108;-41
2021/08/01 06:17:07;;;;;;;12.48;3.60;;;;;;;;;;5054194;28;20452;-42
2021/08/01 06:19:32;;;;;;;9.23;4.60;;;;;;;;;;5052751;28;20025;-41
2021/08/01 06:21:57;;;;;;;7.40;2.67;;;;;;;;;;5053995;28;20017;-41
2021/08/01 06:24:23;;;;;;;14.75;3.72;;;;;;;;;;5053799;28;20179;-41
2021/08/01 06:26:48;;;;;;;14.10;4.20;;;;;;;;;;5053679;28;20013;-42
2021/08/01 06:29:14;;;;;;;8.90;3.92;;;;;;;;;;5052558;28;20021;-41
2021/08/01 06:31:39;;;;;;;7.68;3.33;;;;;;;;;;5053482;28;20040;-41
2021/08/01 06:34:04;;;;;;;5.55;3.72;;;;;;;;;;5053682;28;20116;-42
2021/08/01 06:36:30;;;;;;;6.95;3.95;;;;;;;;;;5053837;28;20044;-41
2021/08/01 06:38:55;;;;;;;8.30;3.60;;;;;;;;;;5053688;28;20375;-42
2021/08/01 06:41:20;;;;;;;15.98;3.90;;;;;;;;;;5053771;28;20551;-42
2021/08/01 06:43:46;;;;;;;13.10;3.75;;;;;;;;;;5053599;28;20539;-42
2021/08/01 06:46:11;;;;;;;9.20;3.33;;;;;;;;;;5053625;28;20021;-41
2021/08/01 06:48:37;;;;;;;14.65;4.18;;;;;;;;;;5052023;28;20076;-42
2021/08/01 06:51:03;;;;;;;6.72;3.05;;;;;;;;;;5053117;28;20442;-41
2021/08/01 06:53:29;;;;;;;6.90;2.95;;;;;;;;;;5053212;28;20037;-41
2021/08/01 06:55:54;;;;;;;6.30;3.78;;;;;;;;;;5051374;28;20507;-42
2021/08/01 06:58:21;;;;;;;8.57;3.80;;;;;;;;;;5052973;28;20054;-41
2021/08/01 07:00:46;;;;;;;8.57;3.53;;;;;;;;;;5053232;28;20017;-41
2021/08/01 07:03:12;;;;;;;7.72;4.10;;;;;;;;;;5053401;28;20430;-42
2021/08/01 07:05:37;;;;;;;8.07;4.53;;;;;;;;;;5052624;28;20020;-41
2021/08/01 07:08:03;;;;;;;11.27;3.95;;;;;;;;;;5053249;28;20029;-42
2021/08/01 07:10:28;;;;;;;10.48;3.95;;;;;;;;;;5053218;28;20021;-41
2021/08/01 07:12:53;;;;;;;7.20;3.80;;;;;;;;;;5052968;28;20071;-41
2021/08/01 07:15:23;;;;;;;12.57;4.28;;;;;;;;;;5052902;28;20027;-42
2021/08/01 07:17:49;;;;;;;7.43;3.70;;;;;;;;;;5052630;28;20029;-42
2021/08/01 07:20:14;;;;;;;6.93;3.45;;;;;;;;;;5053086;28;20024;-45
2021/08/01 07:22:40;;;;;;;8.20;4.25;;;;;;;;;;5052895;28;20456;-41
2021/08/01 07:25:07;;;;;;;8.75;4.25;;;;;;;;;;5052965;28;20079;-41
2021/08/01 07:27:32;;;;;;;9.88;4.22;;;;;;;;;;5052966;28;20052;-41
2021/08/01 07:29:58;;;;;;;12.95;4.20;;;;;;;;;;5052797;28;20055;-42
2021/08/01 07:32:24;;;;;;;12.80;4.20;;;;;;;;;;5052505;28;20377;-41
2021/08/01 07:34:49;;;;;;;12.27;4.28;;;;;;;;;;5052556;28;20013;-41
2021/08/01 07:37:15;;;;;;;17.70;5.85;;;;;;;;;;5052422;28;20060;-41
2021/08/01 07:39:41;;;;;;;8.35;3.58;;;;;;;;;;5052479;28;20092;-46
2021/08/01 07:42:06;;;;;;;7.97;3.63;;;;;;;;;;5052734;28;20434;-41
2021/08/01 07:44:36;;;;;;;9.15;3.90;;;;;;;;;;5051187;28;20342;-41
2021/08/01 07:47:01;;;;;;;6.60;4.50;;;;;;;;;;5052367;28;20033;-42
2021/08/01 07:49:27;;;;;;;12.52;3.78;;;;;;;;;;5052625;28;20028;-42
2021/08/01 07:51:52;;;;;;;6.68;4.03;;;;;;;;;;5052086;28;20060;-41
2021/08/01 07:54:17;;;;;;;15.55;5.25;;;;;;;;;;5052562;28;20082;-42
2021/08/01 07:56:43;;;;;;;12.70;4.57;;;;;;;;;;5052101;28;20029;-42
2021/08/01 07:59:08;;;;;;;7.88;4.15;;;;;;;;;;5052616;28;20025;-41
2021/08/01 08:01:33;;;;;;;13.77;3.97;;;;;;;;;;5052266;28;20543;-41
2021/08/01 08:03:59;;;;;;;10.55;4.47;;;;;;;;;;5052422;28;20029;-41
2021/08/01 08:06:24;;;;;;;7.57;4.43;;;;;;;;;;5052482;28;20049;-41
2021/08/01 08:08:49;;;;;;;11.48;4.82;;;;;;;;;;5055285;28;20479;-41
2021/08/01 08:11:15;;;;;;;10.75;4.30;;;;;;;;;;5056250;28;20438;-41
2021/08/01 08:13:40;;;;;;;17.42;4.93;;;;;;;;;;5056435;28;20027;-41
2021/08/01 08:16:05;;;;;;;19.40;5.38;;;;;;;;;;5056393;28;20040;-41
2021/08/01 08:18:31;;;;;;;9.68;3.95;;;;;;;;;;5038243;28;20017;-42
2021/08/01 08:20:56;;;;;;;9.30;3.80;;;;;;;;;;5056403;28;20029;-41
2021/08/01 08:23:23;;;;;;;13.57;4.75;;;;;;;;;;5054916;28;20052;-42
2021/08/01 08:25:49;;;;;;;11.07;4.55;;;;;;;;;;5056111;28;20036;-41
2021/08/01 08:28:14;;;;;;;12.13;4.22;;;;;;;;;;5056255;28;20022;-41
2021/08/01 08:30:39;;;;;;;10.07;4.40;;;;;;;;;;5056240;28;20021;-41
2021/08/01 08:33:05;;;;;;;11.20;3.05;;;;;;;;;;5055787;28;20411;-41
2021/08/01 08:35:30;;;;;;;7.70;3.65;;;;;;;;;;5055902;28;20029;-40
2021/08/01 08:37:56;;;;;;;9.52;3.03;;;;;;;;;;5055686;28;20107;-41
2021/08/01 08:40:21;;;;;;;10.63;4.22;;;;;;;;;;5055983;28;20036;-41
2021/08/01 08:42:48;;;;;;;4.90;3.17;;;;;;;;;;5054417;28;20455;-41
2021/08/01 08:45:15;;;;;;;6.95;3.13;;;;;;;;;;5055678;28;20037;-41
2021/08/01 08:47:42;;;;;;;7.53;3.95;;;;;;;;;;5054279;28;20590;-41
2021/08/01 08:50:11;;;;;;;11.25;4.68;;;;;;;;;;5055709;28;20107;-41
2021/08/01 08:52:37;;;;;;;12.52;3.67;;;;;;;;;;5055188;28;20041;-41
2021/08/01 08:55:02;;;;;;;11.20;3.35;;;;;;;;;;5055787;28;20031;-42
2021/08/01 08:57:29;;;;;;;5.30;3.38;;;;;;;;;;5055406;28;20551;-41
2021/08/01 09:00:03;;;;;;;8.80;3.10;;;;;;;;;;5055418;28;20044;-41
2021/08/01 09:02:28;;;;;;;5.25;2.47;;;;;;;;;;5055237;28;20493;-41
2021/08/01 09:04:55;;;;;;;9.65;3.63;;;;;;;;;;5055292;28;20092;-41
2021/08/01 09:07:20;;;;;;;7.53;3.30;;;;;;;;;;5054102;28;20078;-41
2021/08/01 09:09:45;;;;;;;6.00;2.65;;;;;;;;;;5055337;28;20100;-41
2021/08/01 09:12:11;;;;;;;4.70;2.13;;;;;;;;;;5055218;28;20072;-41
2021/08/01 09:14:36;;;;;;;7.72;2.08;;;;;;;;;;5055362;28;20506;-41
2021/08/01 09:17:02;;;;;;;2.90;2.17;;;;;;;;;;5055141;28;20040;-42
2021/08/01 09:19:33;;;;;;;9.98;2.40;;;;;;;;;;5054334;28;20017;-41
2021/08/01 09:22:31;;;;;;;6.55;2.10;;;;;;;;;;5053625;28;20025;-41
2021/08/01 09:24:56;;;;;;;5.43;2.30;;;;;;;;;;5042630;28;20083;-41
2021/08/01 09:27:33;;;;;;;7.68;2.20;;;;;;;;;;5055222;28;20075;-42
2021/08/01 09:29:59;;;;;;;10.75;2.17;;;;;;;;;;5054774;28;20028;-42
2021/08/01 09:32:25;;;;;;;2.88;2.20;;;;;;;;;;5054753;28;20123;-41
2021/08/01 09:34:50;;;;;;;5.18;1.95;;;;;;;;;;5055024;28;20043;-41
2021/08/01 09:37:36;;;;;;;3.67;1.90;;;;;;;;;;5054647;28;20589;-41
2021/08/01 09:40:06;;;;;;;5.10;2.15;;;;;;;;;;5054507;28;20403;-41
2021/08/01 09:42:38;;;;;;;6.15;2.50;;;;;;;;;;5054664;28;20499;-42
2021/08/01 09:45:11;;;;;;;4.05;2.38;;;;;;;;;;5054844;28;20028;-42
2021/08/01 09:47:36;;;;;;;9.75;2.33;;;;;;;;;;5054424;28;20047;-41
2021/08/01 09:50:06;;;;;;;6.95;2.53;;;;;;;;;;5053285;28;20017;-41
2021/08/01 09:52:32;;;;;;;6.35;2.25;;;;;;;;;;5054126;28;20403;-41
2021/08/01 09:54:57;;;;;;;3.13;1.88;;;;;;;;;;5053091;28;20029;-41
2021/08/01 09:57:22;;;;;;;5.20;2.38;;;;;;;;;;5054613;28;20025;-41
2021/08/01 09:59:49;;;;;;;6.05;1.98;;;;;;;;;;5054224;28;20092;-41
2021/08/01 10:02:14;;;;;;;6.95;2.25;;;;;;;;;;5054608;28;20035;-41
2021/08/01 10:04:42;;;;;;;4.78;2.38;;;;;;;;;;5052808;28;20021;-41
2021/08/01 10:07:08;;;;;;;3.10;1.73;;;;;;;;;;5052913;28;20025;-41
2021/08/01 10:09:34;;;;;;;6.20;2.47;;;;;;;;;;5054122;28;20017;-42
2021/08/01 10:11:59;;;;;;;3.10;2.65;;;;;;;;;;5054141;28;20065;-41
2021/08/01 10:14:26;;;;;;;2.40;2.08;;;;;;;;;;5054056;28;20458;-41
2021/08/01 10:16:51;;;;;;;7.07;2.35;;;;;;;;;;5054126;28;20037;-41
2021/08/01 10:19:19;;;;;;;4.18;2.53;;;;;;;;;;5054205;28;20521;-41
2021/08/01 10:21:45;;;;;;;4.93;2.50;;;;;;;;;;5053809;28;20116;-41
2021/08/01 10:24:11;;;;;;;4.00;2.63;;;;;;;;;;5054195;28;20043;-42
2021/08/01 10:26:39;;;;;;;3.83;2.72;;;;;;;;;;5053704;28;20112;-41
2021/08/01 10:29:09;;;;;;;4.15;2.15;;;;;;;;;;5054036;28;20025;-41
2021/08/01 10:31:36;;;;;;;3.67;2.65;;;;;;;;;;5052571;28;20065;-41
2021/08/01 10:34:15;;;;;;;4.78;2.72;;;;;;;;;;5053618;28;20103;-41
2021/08/01 10:36:46;;;;;;;9.02;3.10;;;;;;;;;;5053472;28;20032;-41
2021/08/01 10:39:13;;;;;;;3.85;2.17;;;;;;;;;;5053840;28;20530;-41
2021/08/01 10:41:39;;;;;;;7.50;2.33;;;;;;;;;;5053652;28;20045;-41
2021/08/01 10:44:08;;;;;;;5.93;2.75;;;;;;;;;;5053762;28;20429;-42
2021/08/01 10:46:34;;;;;;;5.00;2.70;;;;;;;;;;5053733;28;20017;-41
2021/08/01 10:49:01;;;;;;;6.20;2.53;;;;;;;;;;5053268;28;20037;-41
2021/08/01 10:51:28;;;;;;;5.90;2.88;;;;;;;;;;5053218;28;20041;-42
2021/08/01 10:54:13;;;;;;;3.92;2.97;;;;;;;;;;5053110;28;20383;-42
2021/08/01 10:56:39;;;;;;;3.95;3.00;;;;;;;;;;5052880;28;20025;-41
2021/08/01 10:59:04;;;;;;;2.60;1.73;;;;;;;;;;5053221;28;20071;-41
2021/08/01 11:01:29;;;;;;;5.88;2.58;;;;;;;;;;5052118;28;20099;-41
2021/08/01 11:04:14;;;;;;;6.03;2.80;;;;;;;;;;5053012;28;20475;-41
2021/08/01 11:06:43;;;;;;;6.68;2.63;;;;;;;;;;5053269;28;20021;-41
2021/08/01 11:09:12;;;;;;;5.07;3.15;;;;;;;;;;5053484;28;20032;-41
2021/08/01 11:11:37;;;;;;;5.70;3.05;;;;;;;;;;5052868;28;20029;-41
2021/08/01 11:14:03;;;;;;;9.55;3.10;;;;;;;;;;5052872;28;20024;-41
2021/08/01 11:16:31;;;;;;;4.05;3.20;;;;;;;;;;5052860;28;20024;-44
2021/08/01 11:18:57;;;;;;;8.73;2.97;;;;;;;;;;5052762;28;20416;-41
2021/08/01 11:21:50;;;;;;;11.00;3.60;;;;;;;;;;5052780;28;20103;-41
2021/08/01 11:24:15;;;;;;;7.32;3.20;;;;;;;;;;5051737;28;20392;-41
2021/08/01 11:27:00;;;;;;;6.75;3.33;;;;;;;;;;5051343;28;20035;-41
2021/08/01 11:29:25;;;;;;;6.03;3.58;;;;;;;;;;5052697;28;20029;-41
2021/08/01 11:32:09;;;;;;;9.40;2.85;;;;;;;;;;5052700;28;20357;-41
2021/08/01 11:34:34;;;;;;;6.95;3.75;;;;;;;;;;5052700;28;20622;-41
2021/08/01 11:37:19;;;;;;;4.82;3.38;;;;;;;;;;5052732;28;20029;-41
2021/08/01 11:39:52;;;;;;;5.07;3.45;;;;;;;;;;5052423;28;20490;-41
2021/08/01 11:42:24;;;;;;;9.38;3.42;;;;;;;;;;5052200;28;20044;-41
2021/08/01 11:45:00;;;;;;;5.60;4.07;;;;;;;;;;5052339;28;20028;-41
2021/08/01 11:47:26;;;;;;;8.70;1.92;;;;;;;;;;5052657;28;20120;-41
2021/08/01 11:49:52;;;;;;;7.97;4.00;;;;;;;;;;5052625;28;20102;-41
2021/08/01 11:52:33;;;;;;;7.43;3.60;;;;;;;;;;5052119;28;20491;-41
2021/08/01 11:55:00;;;;;;;8.30;4.05;;;;;;;;;;5052570;28;20041;-42
2021/08/01 11:57:31;;;;;;;14.20;4.65;;;;;;;;;;5052233;28;20029;-41
2021/08/01 11:59:57;;;;;;;10.15;4.82;;;;;;;;;;5052142;28;20078;-41
2021/08/01 12:02:23;;;;;;;10.52;3.63;;;;;;;;;;5052325;28;20017;-41
2021/08/01 12:04:53;;;;;;;6.50;4.35;;;;;;;;;;5052187;28;20021;-41
2021/08/01 12:07:19;;;;;;;5.97;2.88;;;;;;;;;;5052210;28;20510;-41
2021/08/01 12:09:44;;;;;;;12.95;3.30;;;;;;;;;;5052117;28;20029;-41
2021/08/01 12:12:10;;;;;;;5.90;3.63;;;;;;;;;;5050954;28;20446;-41
2021/08/01 12:15:17;;;;;;;10.32;4.30;;;;;;;;;;5052336;28;20051;-41
2021/08/01 12:18:04;;;;;;;16.88;4.13;;;;;;;;;;5052348;28;20037;-41
2021/08/01 12:20:31;;;;;;;7.15;3.65;;;;;;;;;;5052336;28;20028;-41
2021/08/01 12:22:56;;;;;;;11.73;4.50;;;;;;;;;;5051960;28;20032;-41
2021/08/01 12:25:21;;;;;;;7.88;4.63;;;;;;;;;;5051993;28;20029;-41
2021/08/01 12:27:47;;;;;;;8.73;4.97;;;;;;;;;;5052190;28;20025;-41
2021/08/01 12:30:20;;;;;;;8.88;3.75;;;;;;;;;;5051992;28;20513;-42
2021/08/01 12:32:45;;;;;;;;;;;;;;;;;;5052257;28;20048;-41
2021/08/01 12:35:13;;;;;;;5.63;4.07;;;;;;;;;;5052183;28;19905;-42
2021/08/01 12:37:40;;;;;;;14.32;4.30;;;;;;;;;;5051839;28;20082;-42
2021/08/01 12:40:06;;;;;;;7.18;2.55;;;;;;;;;;5051963;28;20524;-42
2021/08/01 12:42:31;;;;;;;12.20;3.78;;;;;;;;;;5051822;28;20172;-41
2021/08/01 12:44:58;;;;;;;10.27;4.63;;;;;;;;;;5052078;28;20095;-41
2021/08/01 12:47:25;;;;;;;8.98;3.85;;;;;;;;;;5052079;28;20372;-41
2021/08/01 12:49:50;;;;;;;5.93;3.63;;;;;;;;;;5051967;28;20032;-41
2021/08/01 12:52:25;;;;;;;6.68;3.17;;;;;;;;;;5051522;28;20434;-41
2021/08/01 12:54:52;;;;;;;15.43;3.70;;;;;;;;;;5053173;28;20082;-41
2021/08/01 12:57:17;;;;;;;6.03;3.58;;;;;;;;;;5055420;28;20017;-40
2021/08/01 13:00:02;;;;;;;9.50;3.97;;;;;;;;;;5055377;28;20031;-41
2021/08/01 13:02:28;;;;;;;7.55;3.55;;;;;;;;;;5055271;28;20037;-41
2021/08/01 13:04:54;;;;;;;5.68;2.92;;;;;;;;;;5055251;28;20027;-41
2021/08/01 13:07:19;;;;;;;7.22;3.40;;;;;;;;;;5055663;28;20116;-41
2021/08/01 13:09:44;;;;;;;3.10;2.17;;;;;;;;;;5055082;28;20025;-41
2021/08/01 13:12:11;;;;;;;7.30;3.78;;;;;;;;;;5055499;28;20037;-41
2021/08/01 13:14:36;;;;;;;2.03;1.85;;;;;;;;;;5055200;28;20017;-41
2021/08/01 13:17:02;;;;;;;5.28;3.17;;;;;;;;;;5055317;28;20035;-41
2021/08/01 13:19:35;;;;;;;4.93;2.78;;;;;;;;;;5055043;28;20472;-41
2021/08/01 13:22:11;;;;;;;3.05;2.33;;;;;;;;;;5054926;28;20028;-41
2021/08/01 13:24:39;;;;;;;3.78;2.53;;;;;;;;;;5053639;28;20041;-41
2021/08/01 13:27:06;;;;;;;3.58;2.63;;;;;;;;;;5055201;28;20040;-42
2021/08/01 13:29:32;;;;;;;3.08;2.42;;;;;;;;;;5054930;28;20074;-41
2021/08/01 13:32:05;;;;;;;2.42;2.08;;;;;;;;;;5054683;28;20052;-41
2021/08/01 13:34:38;;;;;;;4.18;2.20;;;;;;;;;;5054829;28;20028;-40
2021/08/01 13:37:03;;;;;;;;;;;;;;;;;;5055316;28;20029;-41
2021/08/01 13:39:28;;;;;;;4.50;2.05;;;;;;;;;;5054645;28;19911;-41
2021/08/01 13:42:03;;;;;;;2.65;1.67;;;;;;;;;;5054963;28;20025;-41
2021/08/01 13:44:28;;;;;;;4.47;2.22;;;;;;;;;;5054644;28;20159;-41
2021/08/01 13:47:13;;;;;;;2.05;1.50;;;;;;;;;;5054471;28;20099;-41
2021/08/01 13:49:39;;;;;;;3.58;1.60;;;;;;;;;;5054836;28;20372;-42
2021/08/01 13:52:06;;;;;;;4.07;1.70;;;;;;;;;;5054361;28;20403;-41
2021/08/01 13:54:31;;;;;;;5.38;2.85;;;;;;;;;;5054319;28;20499;-42
2021/08/01 13:56:57;;;;;;;7.22;2.80;;;;;;;;;;5054339;28;20112;-42
2021/08/01 13:59:22;;;;;;;2.92;2.20;;;;;;;;;;5053103;28;20032;-41
2021/08/01 14:01:48;;;;;;;2.13;1.65;;;;;;;;;;5054171;28;20021;-41
2021/08/01 14:04:13;;;;;;;2.63;2.05;;;;;;;;;;5054284;28;20029;-41
2021/08/01 14:06:38;;;;;;;4.00;2.20;;;;;;;;;;5053952;28;20071;-41
2021/08/01 14:09:04;;;;;;;2.60;2.20;;;;;;;;;;5053988;28;20024;-41
2021/08/01 14:11:30;;;;;;;2.45;1.52;;;;;;;;;;5054145;28;20021;-40
2021/08/01 14:13:55;;;;;;;3.22;1.58;;;;;;;;;;5053954;28;20028;-41
2021/08/01 14:16:20;;;;;;;5.65;2.05;;;;;;;;;;5054014;28;20096;-41
2021/08/01 14:18:46;;;;;;;1.90;1.55;;;;;;;;;;5053924;28;20051;-41
2021/08/01 14:21:11;;;;;;;2.63;1.92;;;;;;;;;;5053980;28;20027;-41
2021/08/01 14:23:37;;;;;;;9.65;2.22;;;;;;;;;;5053896;28;20055;-41
2021/08/01 14:26:03;;;;;;;2.33;1.55;;;;;;;;;;5053955;28;20058;-41
2021/08/01 14:28:30;;;;;;;4.75;1.63;;;;;;;;;;5053744;28;20044;-41
2021/08/01 14:30:56;;;;;;;3.40;1.52;;;;;;;;;;5053618;28;20028;-41
2021/08/01 14:33:23;;;;;;;2.22;1.92;;;;;;;;;;5053655;28;20048;-41
2021/08/01 14:35:49;;;;;;;4.50;1.70;;;;;;;;;;5053579;28;20463;-41
2021/08/01 14:38:15;;;;;;;2.25;1.70;;;;;;;;;;5053829;28;20057;-41
2021/08/01 14:40:40;;;;;;;2.70;1.88;;;;;;;;;;5053814;28;20071;-41
2021/08/01 14:43:07;;;;;;;1.73;1.23;;;;;;;;;;5053768;28;20426;-42